Dutch Harbor, Alaska
Current Conditions -  °F | °C
As of 1:56 PM on Saturday 25 Oct 2014 (Local Time) from PADU Reporting Station
Scattered Clouds Scattered Clouds  
Wind Chill: 40°   Ceiling: Unl
Heat Index: 45°   Visibility: 10mi
Dew Point: 34°   Wind: 9mph
Humidity: 65%   Direction: 350°N
Pressure: 29.98"   Gusts: NA
Location:  53.51°N, 167.06°W
Report Text: PADU 252156Z 35008KT 10SM SCT028 07/01 A2998 RMK AO2 SLP156 CS T00720011
Loading
Personal Weather Stations






























Interactive Weather Map
Tropical Storm Tracking
New forecast layout! Learn more

10-Day Weather Forecast

Advertisements
Track Severe Weather on mobile